Dravosburg, PA

12:52 PM EDT on May 27, 2015 (GMT -0400)
Allegheny County | | Change Station
CLOSE
Current Station
Airport
Location: Pittsburgh Allegheny Co.,
Elevation: 1253 ft
Nearby Weather Stations

Elev 1253 ft 40.35 °N, 79.92 °W | Updated 24 minutes ago

Overcast
Overcast
74 °F
Feels Like 74 °F
N
9
Wind Variable Wind from SSW

Today
High -- | Low -- °F
--% Chance of Precip.
Yesterday
High -- | Low -- °F
Precip. -- in
5:54 AM 8:39 PM
Waxing Gibbous, 68% visible
Pressure 30.16 in
Visibility 10.0 miles
Clouds Scattered Clouds 2200 ft
Scattered Clouds 2700 ft
Mostly Cloudy 3200 ft
Dew Point 61 °F
Humidity 64%
Rainfall 0.05 in
Snow Depth Not available.
UV 6 out of 12
Pollen 7.90 out of 12
Air Quality Not available.
Flu Activity Sporadic
SPECI KAGC 271628Z 21008KT 10SM SCT022 SCT027 BKN032 23/16 A3016 RMK AO2 T02330161

More Conditions Fewer Conditions

Pressure 30.16 in
Visibility 10.0 miles
Clouds Scattered Clouds 2200 ft
Scattered Clouds 2700 ft
Mostly Cloudy 3200 ft
Dew Point 61 °F
Humidity 64%
Rainfall 0.05 in
Snow Depth Not available.
UV 6 out of 12
Pollen 7.90 out of 12
Air Quality Not available.
Flu Activity Sporadic
SPECI KAGC 271628Z 21008KT 10SM SCT022 SCT027 BKN032 23/16 A3016 RMK AO2 T02330161

More Conditions Fewer Conditions

10-Day Weather Forecast

Almanac

Astronomy

May. 27, 2015 Rise Set
Actual Time
Civil Twilight
Nautical Twilight
Astronomical Twilight
Moon
Length of Visible Light
Length of Day
Tomorrow will be .
, % of the Moon is Illuminated

Today's Extremes

State Highs State Lows

Community

WunderPhotos

Upload Photos

1,824,720 photos uploaded!

WunderBlogs® & News

Nearby

Air Quality

  Air Quality AQ Index Pollutant
Not available.

Snow Depth

Station Depth Elevation

Earthquake Activity

City Distance Mag. Time & Date
Minimum magnitude displayed is 2.5.

Coastal Water Temperatures

Place Temperature

Stations

Nearby Weather Stations

Station Location Temp. Windchill Dew Point Humidity Wind Precip. Elev Updated Type